Time;durP1;ratioP1;P1;durP2;ratioP2;P2;SDS_P1;SDS_P2;PMS_P1;PMS_P2;Temp;Humidity;BMP_temperature;BMP_pressure;BME280_temperature;BME280_humidity;BME280_pressure;Samples;Min_cycle;Max_cycle;Signal;HPM_P1;HPM_P2
2023/09/03 00:00:50;;;;;;;9.20;6.20;;;;;;;19.32;63.03;99891.55;107691;1253;71107;-39
2023/09/03 00:03:18;;;;;;;8.60;6.40;;;;;;;19.34;63.23;99887.86;107700;1254;60340;-40
2023/09/03 00:05:56;;;;;;;8.90;6.60;;;;;;;19.35;63.31;99888.48;107751;1253;60168;-40
2023/09/03 00:08:24;;;;;;;12.70;7.20;;;;;;;19.37;63.09;99884.05;107715;1251;72566;-40
2023/09/03 00:10:52;;;;;;;9.60;7.30;;;;;;;19.38;62.90;99880.74;107654;1254;66660;-40
2023/09/03 00:13:20;;;;;;;9.10;7.00;;;;;;;19.39;62.61;99878.70;107717;1253;71914;-40
2023/09/03 00:15:48;;;;;;;8.60;6.90;;;;;;;19.39;62.53;99877.13;107668;1251;60559;-40
2023/09/03 00:18:15;;;;;;;9.60;7.00;;;;;;;19.38;62.31;99878.16;107730;1251;60223;-40
2023/09/03 00:20:56;;;;;;;8.20;6.70;;;;;;;19.36;62.38;99879.20;107704;1251;73872;-40
2023/09/03 00:23:24;;;;;;;9.00;7.00;;;;;;;19.31;62.39;99876.88;107709;1253;67564;-40
2023/09/03 00:25:52;;;;;;;12.00;7.50;;;;;;;19.29;62.58;99871.55;107654;1251;72688;-40
2023/09/03 00:28:19;;;;;;;8.50;6.80;;;;;;;19.26;62.32;99869.08;107664;1251;60854;-40
2023/09/03 00:31:08;;;;;;;8.20;6.60;;;;;;;19.23;62.33;99866.42;107673;1253;60414;-40
2023/09/03 00:33:36;;;;;;;7.70;6.20;;;;;;;19.24;62.21;99867.27;107674;1254;73817;-40
2023/09/03 00:36:05;;;;;;;7.70;6.10;;;;;;;19.29;61.97;99863.46;107734;1253;66309;-40
2023/09/03 00:38:32;;;;;;;7.20;5.70;;;;;;;19.31;61.37;99865.04;107669;1254;71993;-40
2023/09/03 00:41:04;;;;;;;7.60;5.60;;;;;;;19.32;61.00;99861.01;107737;1253;59824;-40
2023/09/03 00:43:33;;;;;;;7.70;5.90;;;;;;;19.32;60.88;99864.61;107661;1252;60464;-40
2023/09/03 00:46:03;;;;;;;10.50;6.50;;;;;;;19.31;61.07;99863.23;107789;1251;72569;-40
2023/09/03 00:48:31;;;;;;;8.90;6.40;;;;;;;19.29;61.03;99863.55;107718;1251;67591;-40
2023/09/03 00:51:01;;;;;;;8.20;6.20;;;;;;;19.29;61.25;99864.73;107678;1253;72700;-40
2023/09/03 00:53:30;;;;;;;9.70;6.70;;;;;;;19.29;61.28;99860.24;107699;1253;60424;-40
2023/09/03 00:55:58;;;;;;;9.20;6.80;;;;;;;19.30;61.36;99859.22;107714;1251;60425;-40
2023/09/03 00:58:26;;;;;;;10.60;7.40;;;;;;;19.30;61.36;99857.02;107659;1253;73029;-40
2023/09/03 01:00:55;;;;;;;9.40;7.30;;;;;;;19.27;61.53;99854.06;107666;1253;67583;-40
2023/09/03 01:03:25;;;;;;;11.20;7.80;;;;;;;19.25;61.57;99851.41;107518;1254;71422;-40
2023/09/03 01:05:53;;;;;;;10.10;8.60;;;;;;;19.24;61.70;99855.66;107692;1253;60177;-40
2023/09/03 01:08:20;;;;;;;10.70;7.60;;;;;;;19.23;62.05;99850.55;107618;1253;60489;-40
2023/09/03 01:11:03;;;;;;;12.10;7.30;;;;;;;19.27;62.33;99851.55;107484;1253;73955;-40
2023/09/03 01:13:42;;;;;;;8.90;6.80;;;;;;;19.33;62.07;99852.75;107527;1253;66306;-42
2023/09/03 01:16:13;;;;;;;;;;;;;;;19.36;61.84;99852.19;107528;1253;71080;-39
2023/09/03 01:18:41;;;;;;;14.20;7.40;;;;;;;19.37;61.72;99849.48;107452;1254;60429;-39
2023/09/03 01:21:48;;;;;;;9.30;6.50;;;;;;;19.39;61.46;99847.43;107342;1253;60804;-39
2023/09/03 01:24:19;;;;;;;9.50;6.90;;;;;;;19.41;61.54;99849.22;107298;1253;72987;-39
2023/09/03 01:26:55;;;;;;;10.30;7.40;;;;;;;19.41;61.27;99852.29;107687;1253;66287;-39
2023/09/03 01:29:22;;;;;;;10.60;7.30;;;;;;;19.39;61.56;99850.89;107489;1254;71445;-40
2023/09/03 01:31:50;;;;;;;10.70;7.00;;;;;;;19.37;61.60;99849.49;107387;1253;60186;-40
2023/09/03 01:34:17;;;;;;;10.40;7.50;;;;;;;19.34;61.75;99850.94;107404;1253;60727;-40
2023/09/03 01:36:45;;;;;;;11.10;7.80;;;;;;;19.32;61.75;99853.30;107498;1253;72538;-40
2023/09/03 01:39:16;;;;;;;12.30;7.90;;;;;;;19.30;62.17;99851.91;107459;1253;67648;-40
2023/09/03 01:41:44;;;;;;;9.60;6.70;;;;;;;19.28;62.58;99853.49;107655;1254;72724;-40
2023/09/03 01:44:12;;;;;;;9.30;7.00;;;;;;;19.32;62.67;99848.45;107628;1253;60534;-40
2023/09/03 01:46:50;;;;;;;8.70;6.50;;;;;;;19.36;63.11;99851.14;107652;1253;60026;-40
2023/09/03 01:49:21;;;;;;;10.00;6.60;;;;;;;19.39;63.24;99850.02;107566;1257;72664;-40
2023/09/03 01:52:01;;;;;;;8.40;6.60;;;;;;;19.40;63.45;99848.29;107486;1259;67591;-40
2023/09/03 01:54:31;;;;;;;9.10;6.80;;;;;;;19.42;63.46;99849.59;107296;1253;72713;-40
2023/09/03 01:57:02;;;;;;;12.00;7.30;;;;;;;19.42;63.27;99846.84;107685;1252;61185;-40
2023/09/03 01:59:35;;;;;;;12.60;7.70;;;;;;;19.42;63.08;99845.67;107524;1253;60324;-40
2023/09/03 02:02:02;;;;;;;9.40;7.10;;;;;;;19.41;62.74;99845.06;107489;1253;73896;-40
2023/09/03 02:04:30;;;;;;;8.50;6.80;;;;;;;19.39;62.58;99846.33;107362;1253;67567;-40
2023/09/03 02:06:58;;;;;;;9.90;7.10;;;;;;;19.38;62.20;99846.42;107609;1252;72846;-40
2023/09/03 02:09:25;;;;;;;9.80;7.40;;;;;;;19.38;62.23;99845.16;107516;1253;60324;-40
2023/09/03 02:11:53;;;;;;;12.40;7.00;;;;;;;19.37;62.17;99844.31;107503;1253;60591;-40
2023/09/03 02:14:21;;;;;;;10.70;7.10;;;;;;;19.36;62.25;99848.88;107646;1253;73837;-40
2023/09/03 02:16:50;;;;;;;10.50;7.20;;;;;;;19.35;62.02;99847.86;107675;1253;67609;-40
2023/09/03 02:19:18;;;;;;;10.40;6.90;;;;;;;19.35;62.01;99846.38;107512;1254;72697;-40
2023/09/03 02:21:47;;;;;;;8.90;6.60;;;;;;;19.34;62.22;99849.28;107474;1253;60454;-40
2023/09/03 02:24:15;;;;;;;7.60;6.10;;;;;;;19.36;62.17;99850.20;107648;1253;59579;-40
2023/09/03 02:26:44;;;;;;;8.50;6.40;;;;;;;19.40;62.43;99847.66;107596;1253;73949;-40
2023/09/03 02:29:11;;;;;;;9.40;6.70;;;;;;;19.41;62.82;99852.77;107699;1253;67582;-40
2023/09/03 02:31:39;;;;;;;9.20;6.80;;;;;;;19.40;63.21;99850.41;107634;1253;71691;-40
2023/09/03 02:34:07;;;;;;;9.10;6.80;;;;;;;19.41;63.46;99846.63;107512;1253;60181;-40
2023/09/03 02:36:35;;;;;;;9.30;6.60;;;;;;;19.41;63.28;99843.48;107641;1253;61089;-40
2023/09/03 02:39:04;;;;;;;10.40;6.80;;;;;;;19.42;63.37;99846.53;107472;1253;72564;-40
2023/09/03 02:41:32;;;;;;;;;;;;;;;19.40;63.61;99839.27;107667;1253;65357;-40
2023/09/03 02:44:01;;;;;;;10.60;7.10;;;;;;;19.36;63.53;99835.52;107451;1253;72708;-40
2023/09/03 02:46:29;;;;;;;10.50;6.60;;;;;;;19.31;63.63;99835.73;107667;1252;59552;-40
2023/09/03 02:48:56;;;;;;;10.30;7.20;;;;;;;19.29;63.78;99837.55;107614;1253;60348;-40
2023/09/03 02:51:24;;;;;;;8.40;6.50;;;;;;;19.30;63.48;99833.77;107500;1253;73089;-45
2023/09/03 02:53:54;;;;;;;7.90;5.90;;;;;;;19.33;63.26;99836.41;107506;1253;66770;-40
2023/09/03 02:56:22;;;;;;;8.70;6.70;;;;;;;19.33;63.21;99839.16;107625;1253;72712;-41
2023/09/03 02:58:50;;;;;;;10.60;6.80;;;;;;;19.33;62.85;99844.89;107613;1252;59989;-39
2023/09/03 03:01:19;;;;;;;8.00;6.10;;;;;;;19.32;62.70;99845.29;107497;1259;60036;-40
2023/09/03 03:03:47;;;;;;;10.50;7.40;;;;;;;19.32;63.25;99843.02;107561;1253;73878;-40
2023/09/03 03:06:15;;;;;;;10.10;6.70;;;;;;;19.30;63.83;99842.10;107527;1253;67570;-40
2023/09/03 03:08:43;;;;;;;11.70;7.80;;;;;;;19.25;64.62;99846.23;107618;1253;72709;-40
2023/09/03 03:11:12;;;;;;;9.70;7.20;;;;;;;19.20;65.54;99847.98;107446;1256;60489;-40
2023/09/03 03:13:42;;;;;;;9.70;6.50;;;;;;;19.19;65.93;99844.77;107503;1253;60361;-40
2023/09/03 03:16:12;;;;;;;7.70;6.90;;;;;;;19.21;66.30;99843.11;107510;1253;73860;-40
2023/09/03 03:18:44;;;;;;;9.10;7.00;;;;;;;19.20;66.46;99841.79;107640;1253;66639;-40
2023/09/03 03:21:15;;;;;;;8.90;7.20;;;;;;;19.18;66.78;99839.91;107514;1253;71456;-40
2023/09/03 03:23:45;;;;;;;9.60;7.50;;;;;;;19.17;67.08;99836.39;107570;1254;60550;-40
2023/09/03 03:26:13;;;;;;;9.20;7.20;;;;;;;19.14;67.34;99832.96;107517;1258;60440;-40
2023/09/03 03:28:41;;;;;;;9.60;6.80;;;;;;;19.14;67.29;99831.55;107630;1253;73854;-40
2023/09/03 03:31:14;;;;;;;9.50;6.70;;;;;;;19.15;67.33;99831.48;107491;1256;66601;-40
2023/09/03 03:33:44;;;;;;;8.50;6.40;;;;;;;19.20;67.27;99831.11;107528;1254;72950;-40
2023/09/03 03:36:18;;;;;;;9.00;6.60;;;;;;;19.21;66.86;99830.71;107500;1256;60429;-40
2023/09/03 03:38:46;;;;;;;10.40;6.90;;;;;;;19.24;65.64;99828.86;107524;1253;60425;-40
2023/09/03 03:41:19;;;;;;;8.30;6.50;;;;;;;19.26;65.01;99833.33;107465;1253;73836;-40
2023/09/03 03:43:50;;;;;;;8.40;7.00;;;;;;;19.27;64.50;99834.88;107494;1253;66753;-40
2023/09/03 03:46:19;;;;;;;9.30;7.10;;;;;;;19.26;64.75;99838.27;107555;1253;71087;-40
2023/09/03 03:48:49;;;;;;;9.60;7.70;;;;;;;19.22;64.86;99845.94;107617;1256;60486;-40
2023/09/03 03:51:18;;;;;;;9.30;7.20;;;;;;;19.17;65.22;99848.09;107644;1253;60288;-40
2023/09/03 03:53:46;;;;;;;8.70;6.40;;;;;;;19.09;65.84;99849.64;107488;1253;73944;-40
2023/09/03 03:56:13;;;;;;;10.10;7.00;;;;;;;19.04;66.16;99852.20;107629;1253;67523;-40
2023/09/03 03:58:42;;;;;;;12.20;7.60;;;;;;;18.98;66.63;99851.07;107496;1253;71721;-40
2023/09/03 04:01:23;;;;;;;10.40;7.20;;;;;;;18.92;67.24;99854.02;107551;1256;61149;-40
2023/09/03 04:03:53;;;;;;;8.10;6.70;;;;;;;18.89;67.70;99852.61;107521;1253;60457;-40
2023/09/03 04:06:21;;;;;;;11.70;7.30;;;;;;;18.83;67.93;99848.73;107520;1253;73951;-40
2023/09/03 04:08:49;;;;;;;8.90;6.60;;;;;;;18.77;68.26;99844.08;107570;1253;67595;-40
2023/09/03 04:11:18;;;;;;;12.90;6.60;;;;;;;18.80;68.51;99848.77;107437;1253;73016;-40
2023/09/03 04:13:46;;;;;;;11.50;6.60;;;;;;;18.83;68.48;99846.54;107548;1258;61058;-40
2023/09/03 04:16:16;;;;;;;7.00;6.20;;;;;;;18.83;68.50;99845.52;107494;1253;60448;-40
2023/09/03 04:18:48;;;;;;;10.90;7.00;;;;;;;18.76;68.47;99838.74;107534;1253;73823;-40
2023/09/03 04:21:17;;;;;;;8.70;7.00;;;;;;;18.73;68.65;99841.75;107529;1253;66635;-40
2023/09/03 04:23:44;;;;;;;9.50;6.30;;;;;;;18.70;68.85;99845.92;107496;1256;70967;-40
2023/09/03 04:26:12;;;;;;;7.90;6.30;;;;;;;18.71;69.20;99847.57;107458;1256;61898;-40
2023/09/03 04:28:50;;;;;;;7.80;6.50;;;;;;;18.79;69.05;99852.45;107529;1252;60494;-41
2023/09/03 04:31:17;;;;;;;9.90;6.90;;;;;;;18.83;69.13;99847.25;107502;1253;72847;-40
2023/09/03 04:33:45;;;;;;;7.90;6.50;;;;;;;18.85;69.19;99850.06;107629;1252;66659;-39
2023/09/03 04:36:13;;;;;;;9.20;6.20;;;;;;;18.86;68.92;99844.96;107475;1256;71118;-39
2023/09/03 04:38:41;;;;;;;10.40;6.50;;;;;;;18.92;68.76;99851.52;107507;1253;60305;-39
2023/09/03 04:41:10;;;;;;;13.20;6.60;;;;;;;18.93;68.61;99851.18;107492;1253;60291;-39
2023/09/03 04:43:46;;;;;;;7.80;5.90;;;;;;;18.98;68.80;99859.00;107488;1253;72630;-40
2023/09/03 04:46:18;;;;;;;7.80;6.10;;;;;;;18.97;68.80;99846.44;107489;1253;67400;-40
2023/09/03 04:48:46;;;;;;;9.20;6.70;;;;;;;19.06;68.81;99859.10;107526;1253;71410;-40
2023/09/03 04:51:14;;;;;;;8.50;6.80;;;;;;;19.05;68.62;99863.66;107412;1256;60267;-40
2023/09/03 04:53:42;;;;;;;8.40;6.60;;;;;;;19.00;68.73;99862.91;107616;1253;60323;-40
2023/09/03 04:56:12;;;;;;;8.30;6.40;;;;;;;18.97;69.06;99861.04;107494;1253;72669;-40
2023/09/03 04:58:42;;;;;;;8.80;6.30;;;;;;;18.98;69.11;99856.48;107547;1253;67628;-40
2023/09/03 05:01:14;;;;;;;8.50;6.40;;;;;;;19.03;69.12;99856.69;107429;1256;71461;-40
2023/09/03 05:03:43;;;;;;;7.50;6.40;;;;;;;19.08;69.04;99855.15;107494;1253;60445;-40
2023/09/03 05:06:13;;;;;;;7.60;6.50;;;;;;;19.09;69.09;99853.10;107626;1256;60636;-40
2023/09/03 05:08:42;;;;;;;9.20;6.50;;;;;;;19.08;69.00;99852.63;107549;1253;72616;-40
2023/09/03 05:11:12;;;;;;;9.10;7.00;;;;;;;19.08;69.20;99849.02;107517;1258;67620;-40
2023/09/03 05:13:41;;;;;;;11.60;7.50;;;;;;;19.10;69.29;99848.30;107520;1258;72703;-40
2023/09/03 05:16:09;;;;;;;12.10;9.70;;;;;;;19.17;69.35;99847.63;107519;1253;61079;-40
2023/09/03 05:18:37;;;;;;;10.90;9.30;;;;;;;19.26;69.35;99843.07;107504;1253;59605;-40
2023/09/03 05:21:08;;;;;;;9.80;8.40;;;;;;;19.29;69.19;99842.89;107459;1253;72935;-40
2023/09/03 05:23:36;;;;;;;11.40;7.40;;;;;;;19.32;69.30;99846.55;107498;1253;66641;-41
2023/09/03 05:26:04;;;;;;;8.40;7.10;;;;;;;19.35;68.86;99842.69;107488;1253;71414;-40
2023/09/03 05:28:33;;;;;;;8.50;6.80;;;;;;;19.36;68.72;99837.33;107457;1253;59531;-40
2023/09/03 05:31:02;;;;;;;9.50;6.80;;;;;;;19.38;68.53;99841.31;107541;1253;60335;-40
2023/09/03 05:33:30;;;;;;;8.90;6.30;;;;;;;19.45;68.28;99838.67;107522;1253;72568;-40
2023/09/03 05:35:57;;;;;;;8.30;6.00;;;;;;;19.53;68.04;99835.63;107513;1253;66634;-41
2023/09/03 05:38:25;;;;;;;7.80;6.40;;;;;;;19.58;67.94;99835.35;107497;1253;71253;-40
2023/09/03 05:40:58;;;;;;;9.00;6.00;;;;;;;19.61;67.91;99837.28;107515;1253;60340;-40
2023/09/03 05:43:26;;;;;;;9.60;6.40;;;;;;;19.62;67.14;99837.25;107494;1253;60527;-41
2023/09/03 05:45:55;;;;;;;9.90;6.50;;;;;;;19.64;66.62;99839.60;107492;1253;72606;-40
2023/09/03 05:48:24;;;;;;;8.30;6.60;;;;;;;19.65;66.49;99838.41;107535;1253;66320;-40
2023/09/03 05:50:59;;;;;;;9.10;6.70;;;;;;;19.67;66.50;99840.20;107477;1253;72985;-41
2023/09/03 05:53:28;;;;;;;7.80;5.90;;;;;;;19.74;66.73;99839.10;107421;1256;60432;-40
2023/09/03 05:56:04;;;;;;;8.80;6.50;;;;;;;19.82;66.70;99837.36;107511;1253;60320;-40
2023/09/03 05:58:33;;;;;;;8.70;6.30;;;;;;;19.87;66.96;99835.58;107603;1253;73832;-41
2023/09/03 06:01:04;;;;;;;8.60;6.80;;;;;;;19.84;66.58;99823.89;107542;1257;67596;-40
2023/09/03 06:03:32;;;;;;;10.50;7.00;;;;;;;19.90;66.09;99836.00;107623;1253;71791;-41
2023/09/03 06:06:04;;;;;;;7.90;6.70;;;;;;;19.91;65.97;99835.67;107579;1253;60277;-39
2023/09/03 06:08:33;;;;;;;7.50;6.70;;;;;;;19.91;66.19;99840.79;107629;1253;59283;-40
2023/09/03 06:11:00;;;;;;;7.40;6.10;;;;;;;19.91;65.93;99837.96;107520;1253;72568;-40
2023/09/03 06:13:29;;;;;;;7.10;6.20;;;;;;;19.98;66.04;99836.95;107506;1253;67727;-40
2023/09/03 06:15:57;;;;;;;9.30;6.20;;;;;;;20.08;65.79;99836.83;107550;1253;72653;-40
2023/09/03 06:18:25;;;;;;;7.60;6.20;;;;;;;20.17;65.37;99838.69;107518;1253;60325;-40
2023/09/03 06:20:53;;;;;;;8.10;6.60;;;;;;;20.27;64.42;99837.94;107549;1252;60008;-40
2023/09/03 06:23:21;;;;;;;9.20;5.80;;;;;;;20.37;63.92;99835.30;107515;1253;72641;-40
2023/09/03 06:25:50;;;;;;;6.80;6.00;;;;;;;20.48;63.37;99831.07;107524;1253;65763;-41
2023/09/03 06:28:18;;;;;;;8.30;6.60;;;;;;;20.56;62.72;99835.61;107580;1253;72651;-40
2023/09/03 06:30:46;;;;;;;7.70;6.20;;;;;;;20.64;62.56;99829.27;107581;1257;60100;-40
2023/09/03 06:33:14;;;;;;;7.70;6.50;;;;;;;20.72;62.48;99829.31;107488;1253;60524;-40
2023/09/03 06:35:41;;;;;;;7.40;6.00;;;;;;;20.75;62.42;99832.48;107532;1253;73864;-40
2023/09/03 06:38:09;;;;;;;14.00;6.40;;;;;;;20.81;61.86;99830.50;107482;1253;67887;-40
2023/09/03 06:40:37;;;;;;;8.10;6.50;;;;;;;20.86;61.42;99830.52;107499;1253;71416;-40
2023/09/03 06:43:04;;;;;;;8.20;6.30;;;;;;;20.91;60.92;99825.55;107500;1257;60330;-40
2023/09/03 06:45:32;;;;;;;7.30;6.50;;;;;;;20.98;60.69;99825.12;107472;1253;60342;-40
2023/09/03 06:48:00;;;;;;;7.90;6.60;;;;;;;21.04;60.60;99823.67;107492;1253;72627;-40
2023/09/03 06:50:27;;;;;;;10.60;7.90;;;;;;;21.10;60.62;99818.55;107511;1253;67988;-40
2023/09/03 06:52:55;;;;;;;9.30;6.90;;;;;;;21.14;60.47;99817.80;107494;1257;72681;-40
2023/09/03 06:55:23;;;;;;;8.40;6.80;;;;;;;21.25;60.22;99814.70;107500;1257;60832;-41
2023/09/03 06:57:50;;;;;;;8.30;6.70;;;;;;;21.36;59.56;99811.99;107494;1253;59588;-40
2023/09/03 07:00:18;;;;;;;9.80;7.10;;;;;;;21.42;58.98;99810.16;107490;1253;72572;-40
2023/09/03 07:02:46;;;;;;;11.60;7.50;;;;;;;21.45;57.95;99812.84;107454;1253;67891;-41
2023/09/03 07:05:14;;;;;;;10.00;6.70;;;;;;;21.47;57.36;99813.05;107485;1253;71382;-40
2023/09/03 07:07:42;;;;;;;10.30;7.30;;;;;;;21.47;57.14;99810.61;107526;1253;60325;-41
2023/09/03 07:10:09;;;;;;;9.10;7.20;;;;;;;21.49;57.29;99812.08;107522;1253;60072;-40
2023/09/03 07:12:37;;;;;;;7.60;6.70;;;;;;;21.53;56.91;99813.44;107492;1254;75506;-40
2023/09/03 07:15:05;;;;;;;11.30;7.20;;;;;;;21.57;56.57;99816.58;107490;1253;66453;-39
2023/09/03 07:17:33;;;;;;;7.70;5.60;;;;;;;21.62;55.72;99816.15;107543;1253;71094;-40
2023/09/03 07:20:01;;;;;;;8.00;4.80;;;;;;;21.65;55.11;99816.33;107526;1253;60391;-41
2023/09/03 07:22:28;;;;;;;7.30;5.20;;;;;;;21.68;54.47;99814.30;107514;1253;60413;-40
2023/09/03 07:24:56;;;;;;;6.40;4.70;;;;;;;21.72;54.40;99820.07;107524;1253;72548;-41
2023/09/03 07:27:23;;;;;;;6.80;4.80;;;;;;;21.76;54.45;99820.23;107506;1252;66741;-40
2023/09/03 07:29:52;;;;;;;6.50;5.00;;;;;;;21.81;54.00;99815.56;107382;1253;154840;-41
2023/09/03 07:33:09;;;;;;;6.30;4.80;;;;;;;21.89;53.33;99813.98;104098;1292;600910;-40
2023/09/03 07:35:37;;;;;;;7.60;4.70;;;;;;;21.93;52.99;99814.15;106618;1267;60078;-42
2023/09/03 07:38:04;;;;;;;7.70;5.20;;;;;;;21.96;52.93;99817.80;106590;1266;60961;-40
2023/09/03 07:40:32;;;;;;;7.50;5.00;;;;;;;21.98;52.77;99824.14;106662;1265;72273;-42
2023/09/03 07:43:00;;;;;;;6.20;4.60;;;;;;;22.01;52.85;99820.48;106669;1267;67571;-39
2023/09/03 07:45:27;;;;;;;7.20;4.90;;;;;;;22.05;52.60;99818.48;106645;1265;71363;-40
2023/09/03 07:47:55;;;;;;;8.10;5.10;;;;;;;22.08;51.96;99816.95;106576;1264;195997;-40
2023/09/03 07:50:23;;;;;;;7.70;4.80;;;;;;;22.07;51.25;99815.46;107361;1256;60510;-39
2023/09/03 07:52:51;;;;;;;6.00;4.60;;;;;;;22.06;51.12;99819.11;107242;1257;72354;-39
2023/09/03 07:55:18;;;;;;;6.90;4.90;;;;;;;22.05;51.04;99814.70;107257;1256;67564;-40
2023/09/03 07:57:46;;;;;;;12.70;5.10;;;;;;;22.04;51.10;99813.30;107241;1257;72814;-40
2023/09/03 08:00:13;;;;;;;6.40;4.30;;;;;;;22.02;51.16;99812.80;107185;1257;59678;-40
2023/09/03 08:02:42;;;;;;;5.20;4.30;;;;;;;22.00;51.58;99809.61;107213;1256;59743;-40
2023/09/03 08:05:11;;;;;;;5.00;4.50;;;;;;;22.01;51.73;99808.48;107199;1257;73066;-40
2023/09/03 08:07:39;;;;;;;7.70;4.70;;;;;;;22.04;51.66;99807.31;107228;1256;67551;-41
2023/09/03 08:10:08;;;;;;;7.30;4.40;;;;;;;22.05;51.71;99806.11;107306;1257;71477;-41
2023/09/03 08:12:35;;;;;;;6.00;4.50;;;;;;;22.05;51.72;99808.31;107304;1257;59604;-40
2023/09/03 08:15:04;;;;;;;5.50;4.90;;;;;;;22.07;51.46;99809.93;107267;1256;59493;-40
2023/09/03 08:17:32;;;;;;;5.70;4.20;;;;;;;22.11;51.05;99812.48;107427;1257;73106;-41
2023/09/03 08:20:00;;;;;;;5.10;4.00;;;;;;;22.10;50.39;99808.84;107346;1256;68366;-41
2023/09/03 08:22:31;;;;;;;6.60;4.40;;;;;;;22.11;50.15;99807.27;107206;1257;72644;-41
2023/09/03 08:24:59;;;;;;;9.00;5.10;;;;;;;22.09;49.95;99804.84;107203;1257;59377;-40
2023/09/03 08:27:26;;;;;;;5.40;4.20;;;;;;;22.05;49.80;99807.05;107323;1257;60066;-41
2023/09/03 08:29:54;;;;;;;6.40;4.40;;;;;;;22.04;50.27;99805.18;107242;1257;73056;-41
2023/09/03 08:32:21;;;;;;;7.40;4.30;;;;;;;22.06;50.30;99804.83;107274;1256;66725;-41
2023/09/03 08:34:50;;;;;;;5.10;3.80;;;;;;;22.10;50.40;99803.95;107289;1256;72667;-41
2023/09/03 08:37:18;;;;;;;5.50;4.00;;;;;;;22.16;50.35;99803.44;107363;1256;60046;-41
2023/09/03 08:39:46;;;;;;;7.00;4.20;;;;;;;22.25;50.13;99804.37;107246;1256;60048;-41
2023/09/03 08:42:14;;;;;;;5.80;3.90;;;;;;;22.37;49.87;99808.27;107290;1256;71746;-41
2023/09/03 08:45:16;;;;;;;5.40;4.30;;;;;;;22.50;49.51;99809.08;107228;1256;67559;-41
2023/09/03 08:47:44;;;;;;;7.10;3.70;;;;;;;22.72;49.44;99810.02;106877;1257;72727;-41
2023/09/03 08:50:13;;;;;;;4.50;4.00;;;;;;;22.90;47.94;99811.97;107321;1257;59634;-41
2023/09/03 08:52:42;;;;;;;5.00;3.60;;;;;;;23.04;47.50;99809.10;107284;1255;59237;-40
2023/09/03 08:55:11;;;;;;;6.20;4.00;;;;;;;23.15;47.27;99815.64;107376;1256;73057;-41
2023/09/03 08:57:40;;;;;;;4.40;3.80;;;;;;;23.24;46.39;99818.40;107287;1256;67873;-41
2023/09/03 09:00:12;;;;;;;5.60;4.50;;;;;;;23.33;45.85;99824.10;107293;1257;72664;-41
2023/09/03 09:02:39;;;;;;;4.20;3.60;;;;;;;23.35;45.48;99820.56;107231;1257;59663;-41
2023/09/03 09:05:09;;;;;;;7.30;4.10;;;;;;;23.35;45.87;99819.53;107375;1257;60067;-41
2023/09/03 09:07:36;;;;;;;6.60;3.90;;;;;;;23.39;45.89;99819.59;107260;1258;71863;-41
2023/09/03 09:10:16;;;;;;;6.20;3.70;;;;;;;23.43;45.29;99816.88;107289;1256;65832;-41
2023/09/03 09:13:08;;;;;;;4.40;3.80;;;;;;;23.46;44.98;99818.49;107255;1257;72705;-41
2023/09/03 09:15:36;;;;;;;6.80;3.70;;;;;;;23.47;44.68;99824.41;107315;1257;59237;-39
2023/09/03 09:18:14;;;;;;;4.90;4.10;;;;;;;23.39;44.08;99820.70;107321;1257;60016;-40
2023/09/03 09:20:41;;;;;;;6.90;3.70;;;;;;;23.33;44.51;99818.17;107290;1260;73042;-41
2023/09/03 09:23:09;;;;;;;4.00;3.60;;;;;;;23.32;44.73;99819.08;107370;1256;66809;-41
2023/09/03 09:25:37;;;;;;;5.30;3.90;;;;;;;23.32;45.14;99821.11;107267;1257;72753;-41
2023/09/03 09:28:13;;;;;;;6.50;4.10;;;;;;;23.35;45.23;99818.50;107273;1257;60054;-41
2023/09/03 09:30:53;;;;;;;4.40;3.50;;;;;;;23.38;45.58;99820.02;107369;1257;59666;-41
2023/09/03 09:33:21;;;;;;;5.90;4.30;;;;;;;23.46;45.55;99824.27;107305;1257;73044;-41
2023/09/03 09:35:49;;;;;;;6.90;4.10;;;;;;;23.50;45.45;99831.44;107241;1257;67613;-41
2023/09/03 09:38:17;;;;;;;8.00;4.10;;;;;;;23.52;45.40;99825.39;107242;1257;73009;-41
2023/09/03 09:40:45;;;;;;;4.70;3.90;;;;;;;23.53;45.12;99827.86;107208;1256;59611;-41
2023/09/03 09:43:13;;;;;;;6.30;3.80;;;;;;;23.53;45.76;99820.21;107246;1256;60056;-40
2023/09/03 09:45:48;;;;;;;5.60;3.90;;;;;;;23.57;45.77;99818.27;107224;1257;73177;-40
2023/09/03 09:48:16;;;;;;;5.90;4.00;;;;;;;23.63;46.00;99816.05;107203;1257;67890;-41
2023/09/03 09:50:45;;;;;;;5.70;4.30;;;;;;;23.69;45.68;99816.77;107260;1257;72737;-41
2023/09/03 09:53:20;;;;;;;5.40;4.10;;;;;;;23.67;45.80;99816.59;107179;1257;60087;-41
2023/09/03 09:55:59;;;;;;;5.40;4.20;;;;;;;23.64;45.86;99817.77;107332;1257;60028;-41
2023/09/03 09:58:36;;;;;;;5.60;3.90;;;;;;;23.64;46.05;99814.36;107234;1257;73392;-41
2023/09/03 10:01:05;;;;;;;5.80;4.10;;;;;;;23.58;45.79;99805.37;107365;1257;67573;-41
2023/09/03 10:03:49;;;;;;;6.30;3.90;;;;;;;23.62;45.86;99812.91;107213;1260;72668;-41
2023/09/03 10:06:18;;;;;;;6.90;4.00;;;;;;;23.67;45.97;99815.78;107290;1257;60066;-41
2023/09/03 10:08:47;;;;;;;8.50;4.20;;;;;;;23.72;45.74;99818.26;107095;1257;59511;-41
2023/09/03 10:11:21;;;;;;;5.90;4.10;;;;;;;23.78;45.80;99818.02;107142;1257;72902;-41
2023/09/03 10:13:48;;;;;;;5.80;4.10;;;;;;;23.86;45.79;99819.56;107130;1257;67630;-41
2023/09/03 10:16:19;;;;;;;5.10;4.10;;;;;;;23.94;45.86;99812.04;107131;1258;73111;-41
2023/09/03 10:18:48;;;;;;;7.90;4.40;;;;;;;24.07;45.70;99811.02;107151;1259;59650;-41
2023/09/03 10:21:25;;;;;;;6.20;4.40;;;;;;;24.19;46.00;99806.35;107152;1258;60192;-41
2023/09/03 10:24:13;;;;;;;5.90;4.40;;;;;;;24.34;45.81;99803.15;107060;1257;73084;-41
2023/09/03 10:26:43;;;;;;;8.60;4.00;;;;;;;24.45;45.24;99792.27;107045;1257;67747;-41
2023/09/03 10:29:12;;;;;;;6.70;4.50;;;;;;;24.66;45.25;99790.20;107070;1257;72764;-41
2023/09/03 10:31:39;;;;;;;6.40;4.10;;;;;;;24.93;44.25;99789.13;107081;1257;59727;-41
2023/09/03 10:34:09;;;;;;;5.60;3.70;;;;;;;25.13;43.38;99782.41;107120;1260;60014;-41
2023/09/03 10:36:37;;;;;;;6.30;4.20;;;;;;;25.28;43.34;99777.86;107255;1257;72484;-41
2023/09/03 10:39:21;;;;;;;5.20;3.50;;;;;;;25.40;42.44;99775.77;107101;1259;67594;-41
2023/09/03 10:41:48;;;;;;;5.80;3.80;;;;;;;25.46;42.20;99773.23;107093;1260;72643;-41
2023/09/03 10:44:16;;;;;;;4.80;3.40;;;;;;;25.52;42.49;99778.27;107053;1257;59610;-41
2023/09/03 10:46:59;;;;;;;4.10;3.30;;;;;;;25.69;42.39;99777.70;107107;1259;60020;-41
2023/09/03 10:49:50;;;;;;;4.10;3.30;;;;;;;26.08;41.45;99775.15;107072;1258;73040;-41
2023/09/03 10:52:28;;;;;;;4.00;3.20;;;;;;;26.54;39.64;99777.42;107135;1257;67938;-41
2023/09/03 10:55:15;;;;;;;6.30;3.40;;;;;;;26.92;38.88;99769.64;107234;1260;72045;-41
2023/09/03 10:57:44;;;;;;;3.60;3.00;;;;;;;27.31;38.60;99768.15;107072;1258;60077;-41
2023/09/03 11:00:15;;;;;;;6.10;3.10;;;;;;;27.67;37.44;99766.98;107183;1257;59525;-42
2023/09/03 11:02:43;;;;;;;4.40;3.30;;;;;;;28.04;36.83;99767.84;107126;1259;71412;-42
2023/09/03 11:05:20;;;;;;;3.30;2.70;;;;;;;28.36;36.51;99766.15;107124;1260;68213;-42
2023/09/03 11:07:50;;;;;;;4.60;3.10;;;;;;;28.68;35.50;99767.27;107139;1260;71486;-42
2023/09/03 11:10:20;;;;;;;5.30;3.20;;;;;;;29.06;35.29;99759.13;107118;1257;60069;-42
2023/09/03 11:12:48;;;;;;;4.00;3.10;;;;;;;29.47;34.06;99757.45;107138;1257;60012;-42
2023/09/03 11:15:16;;;;;;;5.10;3.20;;;;;;;29.83;33.53;99754.90;107225;1258;73075;-42
2023/09/03 11:17:51;;;;;;;3.60;2.70;;;;;;;30.10;32.90;99749.20;107108;1258;67064;-42
2023/09/03 11:20:33;;;;;;;3.70;3.00;;;;;;;30.37;32.65;99740.32;107112;1258;72694;-42
2023/09/03 11:23:17;;;;;;;4.40;2.80;;;;;;;30.71;31.76;99737.99;107101;1258;60201;-42
2023/09/03 11:25:45;;;;;;;4.90;2.90;;;;;;;30.94;31.36;99742.67;107166;1259;60179;-42
2023/09/03 11:28:12;;;;;;;3.60;3.00;;;;;;;31.11;31.02;99739.39;107101;1262;73053;-42
2023/09/03 11:30:44;;;;;;;4.40;3.10;;;;;;;31.22;30.92;99733.98;107256;1258;66755;-42
2023/09/03 11:33:25;;;;;;;6.30;3.20;;;;;;;31.27;30.46;99733.73;107060;1260;71840;-42
2023/09/03 11:35:55;;;;;;;8.70;2.80;;;;;;;31.15;30.26;99728.75;107224;1258;60141;-42
2023/09/03 11:38:25;;;;;;;4.90;2.70;;;;;;;31.02;30.71;99718.77;107224;1257;59208;-42